sensor_id;sensor_type;location;lat;lon;timestamp;temperature;humidity
29687;DHT22;16599;47.078;15.536;2023-11-19T00:01:34;2.50;99.90
29687;DHT22;16599;47.078;15.536;2023-11-19T00:04:00;2.50;99.90
29687;DHT22;16599;47.078;15.536;2023-11-19T00:06:27;2.50;99.90
29687;DHT22;16599;47.078;15.536;2023-11-19T00:08:54;2.50;99.90
29687;DHT22;16599;47.078;15.536;2023-11-19T00:11:21;2.50;99.90
29687;DHT22;16599;47.078;15.536;2023-11-19T00:13:48;2.40;99.90
29687;DHT22;16599;47.078;15.536;2023-11-19T00:16:15;2.40;99.90
29687;DHT22;16599;47.078;15.536;2023-11-19T00:18:43;2.30;99.90
29687;DHT22;16599;47.078;15.536;2023-11-19T00:21:10;2.30;99.90
29687;DHT22;16599;47.078;15.536;2023-11-19T00:23:37;2.30;99.90
29687;DHT22;16599;47.078;15.536;2023-11-19T00:26:04;2.30;99.90
29687;DHT22;16599;47.078;15.536;2023-11-19T00:28:33;2.40;99.90
29687;DHT22;16599;47.078;15.536;2023-11-19T00:31:00;2.50;99.90
29687;DHT22;16599;47.078;15.536;2023-11-19T00:33:27;2.50;99.90
29687;DHT22;16599;47.078;15.536;2023-11-19T00:35:54;2.60;99.90
29687;DHT22;16599;47.078;15.536;2023-11-19T00:38:22;2.50;99.90
29687;DHT22;16599;47.078;15.536;2023-11-19T00:40:49;2.30;99.90
29687;DHT22;16599;47.078;15.536;2023-11-19T00:43:16;2.30;99.90
29687;DHT22;16599;47.078;15.536;2023-11-19T00:45:42;2.30;99.90
29687;DHT22;16599;47.078;15.536;2023-11-19T00:48:09;2.40;99.90
29687;DHT22;16599;47.078;15.536;2023-11-19T00:50:37;2.50;99.30
29687;DHT22;16599;47.078;15.536;2023-11-19T00:53:06;2.50;98.60
29687;DHT22;16599;47.078;15.536;2023-11-19T00:55:32;2.60;97.90
29687;DHT22;16599;47.078;15.536;2023-11-19T00:58:11;2.60;97.90
29687;DHT22;16599;47.078;15.536;2023-11-19T01:00:38;2.60;97.80
29687;DHT22;16599;47.078;15.536;2023-11-19T01:03:05;2.60;97.80
29687;DHT22;16599;47.078;15.536;2023-11-19T01:05:34;2.60;97.80
29687;DHT22;16599;47.078;15.536;2023-11-19T01:08:00;2.70;97.60
29687;DHT22;16599;47.078;15.536;2023-11-19T01:10:27;2.80;97.80
29687;DHT22;16599;47.078;15.536;2023-11-19T01:12:55;2.70;97.50
29687;DHT22;16599;47.078;15.536;2023-11-19T01:15:22;2.60;97.10
29687;DHT22;16599;47.078;15.536;2023-11-19T01:17:49;2.60;97.60
29687;DHT22;16599;47.078;15.536;2023-11-19T01:20:19;2.60;97.20
29687;DHT22;16599;47.078;15.536;2023-11-19T01:22:47;2.60;97.20
29687;DHT22;16599;47.078;15.536;2023-11-19T01:25:15;2.70;97.70
29687;DHT22;16599;47.078;15.536;2023-11-19T01:27:42;2.60;97.70
29687;DHT22;16599;47.078;15.536;2023-11-19T01:30:09;2.50;98.40
29687;DHT22;16599;47.078;15.536;2023-11-19T01:32:40;2.50;98.80
29687;DHT22;16599;47.078;15.536;2023-11-19T01:35:07;2.40;99.80
29687;DHT22;16599;47.078;15.536;2023-11-19T01:37:34;2.30;99.90
29687;DHT22;16599;47.078;15.536;2023-11-19T01:40:02;2.30;99.90
29687;DHT22;16599;47.078;15.536;2023-11-19T01:42:35;2.20;99.90
29687;DHT22;16599;47.078;15.536;2023-11-19T01:45:02;2.10;99.90
29687;DHT22;16599;47.078;15.536;2023-11-19T01:47:30;2.10;99.90
29687;DHT22;16599;47.078;15.536;2023-11-19T01:49:57;2.10;99.90
29687;DHT22;16599;47.078;15.536;2023-11-19T01:52:25;2.00;99.90
29687;DHT22;16599;47.078;15.536;2023-11-19T01:54:52;2.00;99.90
29687;DHT22;16599;47.078;15.536;2023-11-19T01:57:21;2.00;99.90
29687;DHT22;16599;47.078;15.536;2023-11-19T01:59:50;1.90;99.90
29687;DHT22;16599;47.078;15.536;2023-11-19T02:02:17;1.90;99.90
29687;DHT22;16599;47.078;15.536;2023-11-19T02:04:49;2.00;99.90
29687;DHT22;16599;47.078;15.536;2023-11-19T02:07:16;2.00;99.90
29687;DHT22;16599;47.078;15.536;2023-11-19T02:09:44;2.00;99.90
29687;DHT22;16599;47.078;15.536;2023-11-19T02:12:10;2.00;99.90
29687;DHT22;16599;47.078;15.536;2023-11-19T02:14:40;2.10;99.90
29687;DHT22;16599;47.078;15.536;2023-11-19T02:17:07;2.00;99.90
29687;DHT22;16599;47.078;15.536;2023-11-19T02:19:34;2.00;99.90
29687;DHT22;16599;47.078;15.536;2023-11-19T02:22:01;2.00;99.90
29687;DHT22;16599;47.078;15.536;2023-11-19T02:24:28;2.00;99.90
29687;DHT22;16599;47.078;15.536;2023-11-19T02:29:23;1.90;99.90
29687;DHT22;16599;47.078;15.536;2023-11-19T02:31:49;1.90;99.90
29687;DHT22;16599;47.078;15.536;2023-11-19T02:34:16;1.80;99.90
29687;DHT22;16599;47.078;15.536;2023-11-19T02:36:43;1.80;99.90
29687;DHT22;16599;47.078;15.536;2023-11-19T02:39:10;1.80;99.90
29687;DHT22;16599;47.078;15.536;2023-11-19T02:41:39;1.70;99.90
29687;DHT22;16599;47.078;15.536;2023-11-19T02:44:06;1.70;99.90
29687;DHT22;16599;47.078;15.536;2023-11-19T02:46:33;1.80;99.90
29687;DHT22;16599;47.078;15.536;2023-11-19T02:49:00;1.90;99.90
29687;DHT22;16599;47.078;15.536;2023-11-19T02:51:27;1.90;99.90
29687;DHT22;16599;47.078;15.536;2023-11-19T02:53:54;1.90;99.90
29687;DHT22;16599;47.078;15.536;2023-11-19T02:56:21;1.80;99.90
29687;DHT22;16599;47.078;15.536;2023-11-19T02:58:56;1.80;99.90
29687;DHT22;16599;47.078;15.536;2023-11-19T03:01:25;1.80;99.90
29687;DHT22;16599;47.078;15.536;2023-11-19T03:04:00;1.80;99.90
29687;DHT22;16599;47.078;15.536;2023-11-19T03:06:30;1.80;99.90
29687;DHT22;16599;47.078;15.536;2023-11-19T03:08:56;1.90;99.90
29687;DHT22;16599;47.078;15.536;2023-11-19T03:11:23;1.80;99.90
29687;DHT22;16599;47.078;15.536;2023-11-19T03:13:51;1.80;99.90
29687;DHT22;16599;47.078;15.536;2023-11-19T03:16:18;1.90;99.90
29687;DHT22;16599;47.078;15.536;2023-11-19T03:18:45;1.90;99.90
29687;DHT22;16599;47.078;15.536;2023-11-19T03:21:11;1.90;99.90
29687;DHT22;16599;47.078;15.536;2023-11-19T03:23:39;2.00;99.90
29687;DHT22;16599;47.078;15.536;2023-11-19T03:26:07;1.90;99.90
29687;DHT22;16599;47.078;15.536;2023-11-19T03:28:34;1.90;99.90
29687;DHT22;16599;47.078;15.536;2023-11-19T03:31:04;1.90;99.90
29687;DHT22;16599;47.078;15.536;2023-11-19T03:33:30;1.90;99.90
29687;DHT22;16599;47.078;15.536;2023-11-19T03:35:57;1.90;99.90
29687;DHT22;16599;47.078;15.536;2023-11-19T03:38:24;1.90;99.90
29687;DHT22;16599;47.078;15.536;2023-11-19T03:40:51;1.80;99.90
29687;DHT22;16599;47.078;15.536;2023-11-19T03:43:18;1.90;99.90
29687;DHT22;16599;47.078;15.536;2023-11-19T03:45:48;1.90;99.90
29687;DHT22;16599;47.078;15.536;2023-11-19T03:48:15;1.90;99.90
29687;DHT22;16599;47.078;15.536;2023-11-19T03:50:43;2.00;99.90
29687;DHT22;16599;47.078;15.536;2023-11-19T03:53:11;2.10;99.90
29687;DHT22;16599;47.078;15.536;2023-11-19T03:55:38;2.00;99.90
29687;DHT22;16599;47.078;15.536;2023-11-19T03:58:04;1.90;99.90
29687;DHT22;16599;47.078;15.536;2023-11-19T04:00:32;1.90;99.90
29687;DHT22;16599;47.078;15.536;2023-11-19T04:02:59;2.00;99.90
29687;DHT22;16599;47.078;15.536;2023-11-19T04:05:26;2.10;99.90
29687;DHT22;16599;47.078;15.536;2023-11-19T04:07:52;2.00;99.90
29687;DHT22;16599;47.078;15.536;2023-11-19T04:10:19;2.10;99.90
29687;DHT22;16599;47.078;15.536;2023-11-19T04:12:47;2.10;99.90
29687;DHT22;16599;47.078;15.536;2023-11-19T04:15:14;2.10;99.90
29687;DHT22;16599;47.078;15.536;2023-11-19T04:17:40;2.10;99.90
29687;DHT22;16599;47.078;15.536;2023-11-19T04:20:07;2.10;99.90
29687;DHT22;16599;47.078;15.536;2023-11-19T04:22:38;2.00;99.90
29687;DHT22;16599;47.078;15.536;2023-11-19T04:25:05;2.00;99.90
29687;DHT22;16599;47.078;15.536;2023-11-19T04:27:32;2.00;99.90
29687;DHT22;16599;47.078;15.536;2023-11-19T04:29:59;2.00;99.90
29687;DHT22;16599;47.078;15.536;2023-11-19T04:32:28;2.00;99.90
29687;DHT22;16599;47.078;15.536;2023-11-19T04:34:55;2.00;99.90
29687;DHT22;16599;47.078;15.536;2023-11-19T04:37:22;2.20;99.90
29687;DHT22;16599;47.078;15.536;2023-11-19T04:39:49;2.20;99.90
29687;DHT22;16599;47.078;15.536;2023-11-19T04:42:16;2.20;99.90
29687;DHT22;16599;47.078;15.536;2023-11-19T04:44:43;2.20;99.90
29687;DHT22;16599;47.078;15.536;2023-11-19T04:47:11;2.30;99.90
29687;DHT22;16599;47.078;15.536;2023-11-19T04:49:41;2.30;99.90
29687;DHT22;16599;47.078;15.536;2023-11-19T04:52:10;2.20;99.90
29687;DHT22;16599;47.078;15.536;2023-11-19T04:54:42;2.30;99.90
29687;DHT22;16599;47.078;15.536;2023-11-19T04:57:10;2.20;99.90
29687;DHT22;16599;47.078;15.536;2023-11-19T04:59:40;2.20;99.90
29687;DHT22;16599;47.078;15.536;2023-11-19T05:02:08;2.20;99.90
29687;DHT22;16599;47.078;15.536;2023-11-19T05:04:35;1.70;99.90
29687;DHT22;16599;47.078;15.536;2023-11-19T05:07:03;1.60;99.90
29687;DHT22;16599;47.078;15.536;2023-11-19T05:09:30;1.70;99.90
29687;DHT22;16599;47.078;15.536;2023-11-19T05:11:57;1.80;99.90
29687;DHT22;16599;47.078;15.536;2023-11-19T05:14:24;1.60;99.90
29687;DHT22;16599;47.078;15.536;2023-11-19T05:16:51;1.40;99.90
29687;DHT22;16599;47.078;15.536;2023-11-19T05:19:18;1.50;99.90
29687;DHT22;16599;47.078;15.536;2023-11-19T05:21:45;1.50;99.90
29687;DHT22;16599;47.078;15.536;2023-11-19T05:24:11;1.50;99.90
29687;DHT22;16599;47.078;15.536;2023-11-19T05:26:38;1.60;99.90
29687;DHT22;16599;47.078;15.536;2023-11-19T05:29:05;1.20;99.90
29687;DHT22;16599;47.078;15.536;2023-11-19T05:31:32;1.10;99.90
29687;DHT22;16599;47.078;15.536;2023-11-19T05:34:02;1.00;99.90
29687;DHT22;16599;47.078;15.536;2023-11-19T05:36:29;0.80;99.90
29687;DHT22;16599;47.078;15.536;2023-11-19T05:38:56;0.90;99.90
29687;DHT22;16599;47.078;15.536;2023-11-19T05:41:23;1.10;99.90
29687;DHT22;16599;47.078;15.536;2023-11-19T05:43:49;1.30;99.90
29687;DHT22;16599;47.078;15.536;2023-11-19T05:46:16;1.30;99.90
29687;DHT22;16599;47.078;15.536;2023-11-19T05:48:46;1.30;99.90
29687;DHT22;16599;47.078;15.536;2023-11-19T05:51:13;1.40;99.90
29687;DHT22;16599;47.078;15.536;2023-11-19T05:53:42;1.50;99.90
29687;DHT22;16599;47.078;15.536;2023-11-19T05:56:09;1.60;99.90
29687;DHT22;16599;47.078;15.536;2023-11-19T05:58:36;1.60;99.90
29687;DHT22;16599;47.078;15.536;2023-11-19T06:01:04;1.70;99.90
29687;DHT22;16599;47.078;15.536;2023-11-19T06:03:31;1.50;99.90
29687;DHT22;16599;47.078;15.536;2023-11-19T06:05:58;1.40;99.90
29687;DHT22;16599;47.078;15.536;2023-11-19T06:08:25;1.30;99.90
29687;DHT22;16599;47.078;15.536;2023-11-19T06:10:53;1.40;99.90
29687;DHT22;16599;47.078;15.536;2023-11-19T06:13:20;1.50;99.90
29687;DHT22;16599;47.078;15.536;2023-11-19T06:15:51;1.50;99.90
29687;DHT22;16599;47.078;15.536;2023-11-19T06:18:18;1.70;99.90
29687;DHT22;16599;47.078;15.536;2023-11-19T06:20:47;1.60;99.90
29687;DHT22;16599;47.078;15.536;2023-11-19T06:23:14;1.70;99.90
29687;DHT22;16599;47.078;15.536;2023-11-19T06:25:41;1.70;99.90
29687;DHT22;16599;47.078;15.536;2023-11-19T06:28:08;1.60;99.90
29687;DHT22;16599;47.078;15.536;2023-11-19T06:30:35;1.60;99.90
29687;DHT22;16599;47.078;15.536;2023-11-19T06:33:02;1.70;99.90
29687;DHT22;16599;47.078;15.536;2023-11-19T06:35:30;1.90;99.90
29687;DHT22;16599;47.078;15.536;2023-11-19T06:38:03;2.10;99.90
29687;DHT22;16599;47.078;15.536;2023-11-19T06:40:31;2.10;99.90
29687;DHT22;16599;47.078;15.536;2023-11-19T06:42:58;2.20;99.90
29687;DHT22;16599;47.078;15.536;2023-11-19T06:45:25;2.20;99.90
29687;DHT22;16599;47.078;15.536;2023-11-19T06:47:52;2.20;99.90
29687;DHT22;16599;47.078;15.536;2023-11-19T06:50:19;2.40;99.90
29687;DHT22;16599;47.078;15.536;2023-11-19T06:52:45;2.30;99.90
29687;DHT22;16599;47.078;15.536;2023-11-19T06:55:12;2.30;99.90
29687;DHT22;16599;47.078;15.536;2023-11-19T06:57:39;2.20;99.90
29687;DHT22;16599;47.078;15.536;2023-11-19T07:00:06;2.20;99.90
29687;DHT22;16599;47.078;15.536;2023-11-19T07:02:33;2.20;99.90
29687;DHT22;16599;47.078;15.536;2023-11-19T07:05:00;2.20;99.90
29687;DHT22;16599;47.078;15.536;2023-11-19T07:07:27;2.20;99.90
29687;DHT22;16599;47.078;15.536;2023-11-19T07:09:54;2.30;99.90
29687;DHT22;16599;47.078;15.536;2023-11-19T07:12:21;2.40;99.90
29687;DHT22;16599;47.078;15.536;2023-11-19T07:14:47;2.50;99.90
29687;DHT22;16599;47.078;15.536;2023-11-19T07:17:14;2.60;99.90
29687;DHT22;16599;47.078;15.536;2023-11-19T07:19:42;2.70;99.90
29687;DHT22;16599;47.078;15.536;2023-11-19T07:22:09;2.70;99.90
29687;DHT22;16599;47.078;15.536;2023-11-19T07:24:41;2.80;99.90
29687;DHT22;16599;47.078;15.536;2023-11-19T07:27:09;2.80;99.90
29687;DHT22;16599;47.078;15.536;2023-11-19T07:29:36;2.80;99.90
29687;DHT22;16599;47.078;15.536;2023-11-19T07:32:04;2.80;99.90
29687;DHT22;16599;47.078;15.536;2023-11-19T07:34:31;2.80;99.90
29687;DHT22;16599;47.078;15.536;2023-11-19T07:36:58;2.90;99.90
29687;DHT22;16599;47.078;15.536;2023-11-19T07:39:29;2.90;99.90
29687;DHT22;16599;47.078;15.536;2023-11-19T07:41:55;2.90;99.90
29687;DHT22;16599;47.078;15.536;2023-11-19T07:44:22;2.90;99.90
29687;DHT22;16599;47.078;15.536;2023-11-19T07:46:49;2.90;99.90
29687;DHT22;16599;47.078;15.536;2023-11-19T07:49:16;2.90;99.90
29687;DHT22;16599;47.078;15.536;2023-11-19T07:51:43;2.90;99.90
29687;DHT22;16599;47.078;15.536;2023-11-19T07:54:10;2.90;99.90
29687;DHT22;16599;47.078;15.536;2023-11-19T07:56:36;3.00;99.90
29687;DHT22;16599;47.078;15.536;2023-11-19T07:59:03;3.00;99.90
29687;DHT22;16599;47.078;15.536;2023-11-19T08:01:30;3.00;99.90
29687;DHT22;16599;47.078;15.536;2023-11-19T08:03:57;3.10;99.90
29687;DHT22;16599;47.078;15.536;2023-11-19T08:06:25;3.10;99.90
29687;DHT22;16599;47.078;15.536;2023-11-19T08:08:52;3.10;99.90
29687;DHT22;16599;47.078;15.536;2023-11-19T08:11:19;3.10;99.90
29687;DHT22;16599;47.078;15.536;2023-11-19T08:13:47;3.10;99.90
29687;DHT22;16599;47.078;15.536;2023-11-19T08:16:14;3.00;99.90
29687;DHT22;16599;47.078;15.536;2023-11-19T08:18:44;3.00;99.90
29687;DHT22;16599;47.078;15.536;2023-11-19T08:21:11;3.10;99.90
29687;DHT22;16599;47.078;15.536;2023-11-19T08:23:38;3.10;99.90
29687;DHT22;16599;47.078;15.536;2023-11-19T08:26:05;3.20;99.90
29687;DHT22;16599;47.078;15.536;2023-11-19T08:28:32;3.30;99.90
29687;DHT22;16599;47.078;15.536;2023-11-19T08:31:01;3.50;99.90
29687;DHT22;16599;47.078;15.536;2023-11-19T08:33:30;3.60;99.90
29687;DHT22;16599;47.078;15.536;2023-11-19T08:35:57;3.70;99.90
29687;DHT22;16599;47.078;15.536;2023-11-19T08:38:25;3.70;99.90
29687;DHT22;16599;47.078;15.536;2023-11-19T08:40:55;3.60;99.90
29687;DHT22;16599;47.078;15.536;2023-11-19T08:43:26;3.60;99.90
29687;DHT22;16599;47.078;15.536;2023-11-19T08:45:53;3.60;99.90
29687;DHT22;16599;47.078;15.536;2023-11-19T08:48:20;3.70;99.90
29687;DHT22;16599;47.078;15.536;2023-11-19T08:53:22;4.00;99.90
29687;DHT22;16599;47.078;15.536;2023-11-19T08:55:49;3.90;99.90
29687;DHT22;16599;47.078;15.536;2023-11-19T08:58:16;4.00;99.90
29687;DHT22;16599;47.078;15.536;2023-11-19T09:00:45;4.10;99.90
29687;DHT22;16599;47.078;15.536;2023-11-19T09:03:11;4.30;99.90
29687;DHT22;16599;47.078;15.536;2023-11-19T09:05:39;4.20;99.90
29687;DHT22;16599;47.078;15.536;2023-11-19T09:08:06;4.20;99.90
29687;DHT22;16599;47.078;15.536;2023-11-19T09:10:33;4.30;99.90
29687;DHT22;16599;47.078;15.536;2023-11-19T09:13:00;4.70;99.90
29687;DHT22;16599;47.078;15.536;2023-11-19T09:15:27;4.80;99.60
29687;DHT22;16599;47.078;15.536;2023-11-19T09:17:54;5.00;98.90
29687;DHT22;16599;47.078;15.536;2023-11-19T09:20:21;5.00;98.30
29687;DHT22;16599;47.078;15.536;2023-11-19T09:22:48;4.90;98.10
29687;DHT22;16599;47.078;15.536;2023-11-19T09:25:16;4.80;98.50
29687;DHT22;16599;47.078;15.536;2023-11-19T09:27:43;4.80;99.20
29687;DHT22;16599;47.078;15.536;2023-11-19T09:30:11;4.80;99.20
29687;DHT22;16599;47.078;15.536;2023-11-19T09:32:41;5.00;99.60
29687;DHT22;16599;47.078;15.536;2023-11-19T09:35:10;4.70;98.50
29687;DHT22;16599;47.078;15.536;2023-11-19T09:37:40;4.60;99.20
29687;DHT22;16599;47.078;15.536;2023-11-19T09:40:11;4.60;99.70
29687;DHT22;16599;47.078;15.536;2023-11-19T09:42:47;4.90;99.90
29687;DHT22;16599;47.078;15.536;2023-11-19T09:45:17;5.10;99.20
29687;DHT22;16599;47.078;15.536;2023-11-19T09:47:45;5.30;98.70
29687;DHT22;16599;47.078;15.536;2023-11-19T09:50:16;5.50;97.60
29687;DHT22;16599;47.078;15.536;2023-11-19T09:52:44;5.50;97.40
29687;DHT22;16599;47.078;15.536;2023-11-19T09:55:10;5.40;97.10
29687;DHT22;16599;47.078;15.536;2023-11-19T09:57:40;5.50;98.40
29687;DHT22;16599;47.078;15.536;2023-11-19T10:00:08;5.80;97.90
29687;DHT22;16599;47.078;15.536;2023-11-19T10:02:37;5.90;96.80
29687;DHT22;16599;47.078;15.536;2023-11-19T10:05:06;5.80;97.40
29687;DHT22;16599;47.078;15.536;2023-11-19T10:07:34;5.90;96.50
29687;DHT22;16599;47.078;15.536;2023-11-19T10:10:01;5.90;97.10
29687;DHT22;16599;47.078;15.536;2023-11-19T10:12:28;6.00;97.30
29687;DHT22;16599;47.078;15.536;2023-11-19T10:14:56;6.00;97.00
29687;DHT22;16599;47.078;15.536;2023-11-19T10:17:27;5.90;97.60
29687;DHT22;16599;47.078;15.536;2023-11-19T10:19:55;5.90;96.90
29687;DHT22;16599;47.078;15.536;2023-11-19T10:22:22;5.90;96.90
29687;DHT22;16599;47.078;15.536;2023-11-19T10:24:49;5.90;97.10
29687;DHT22;16599;47.078;15.536;2023-11-19T10:27:23;5.70;96.70
29687;DHT22;16599;47.078;15.536;2023-11-19T10:29:50;5.80;98.10
29687;DHT22;16599;47.078;15.536;2023-11-19T10:32:17;5.90;97.00
29687;DHT22;16599;47.078;15.536;2023-11-19T10:34:58;6.00;96.50
29687;DHT22;16599;47.078;15.536;2023-11-19T10:37:31;6.00;95.90
29687;DHT22;16599;47.078;15.536;2023-11-19T10:39:59;6.30;96.90
29687;DHT22;16599;47.078;15.536;2023-11-19T10:42:26;6.60;95.40
29687;DHT22;16599;47.078;15.536;2023-11-19T10:44:53;6.70;94.80
29687;DHT22;16599;47.078;15.536;2023-11-19T10:47:20;6.80;95.30
29687;DHT22;16599;47.078;15.536;2023-11-19T10:49:52;6.80;94.90
29687;DHT22;16599;47.078;15.536;2023-11-19T10:52:18;7.10;94.70
29687;DHT22;16599;47.078;15.536;2023-11-19T10:54:49;7.00;94.60
29687;DHT22;16599;47.078;15.536;2023-11-19T10:57:19;6.90;95.00
29687;DHT22;16599;47.078;15.536;2023-11-19T10:59:46;6.80;95.60
29687;DHT22;16599;47.078;15.536;2023-11-19T11:02:14;7.00;95.30
29687;DHT22;16599;47.078;15.536;2023-11-19T11:04:42;7.20;94.10
29687;DHT22;16599;47.078;15.536;2023-11-19T11:09:46;7.50;94.90
29687;DHT22;16599;47.078;15.536;2023-11-19T11:12:15;7.40;94.50
29687;DHT22;16599;47.078;15.536;2023-11-19T11:14:44;7.10;94.80
29687;DHT22;16599;47.078;15.536;2023-11-19T11:17:11;7.40;94.70
29687;DHT22;16599;47.078;15.536;2023-11-19T11:19:39;7.30;93.40
29687;DHT22;16599;47.078;15.536;2023-11-19T11:22:08;7.10;94.10
29687;DHT22;16599;47.078;15.536;2023-11-19T11:24:56;7.40;95.00
29687;DHT22;16599;47.078;15.536;2023-11-19T11:30:19;8.10;93.40
29687;DHT22;16599;47.078;15.536;2023-11-19T11:33:04;8.10;93.40
29687;DHT22;16599;47.078;15.536;2023-11-19T11:35:50;8.00;92.60
29687;DHT22;16599;47.078;15.536;2023-11-19T11:38:22;8.20;92.90
29687;DHT22;16599;47.078;15.536;2023-11-19T11:43:44;8.30;92.40
29687;DHT22;16599;47.078;15.536;2023-11-19T11:48:58;8.30;92.00
29687;DHT22;16599;47.078;15.536;2023-11-19T11:59:49;7.90;92.20
29687;DHT22;16599;47.078;15.536;2023-11-19T12:02:17;7.80;93.10
29687;DHT22;16599;47.078;15.536;2023-11-19T12:04:50;7.90;92.90
29687;DHT22;16599;47.078;15.536;2023-11-19T12:09:51;8.10;92.80
29687;DHT22;16599;47.078;15.536;2023-11-19T12:12:20;8.40;93.00
29687;DHT22;16599;47.078;15.536;2023-11-19T12:20:00;9.40;90.40
29687;DHT22;16599;47.078;15.536;2023-11-19T12:22:28;9.30;90.80
29687;DHT22;16599;47.078;15.536;2023-11-19T12:24:55;9.30;91.20
29687;DHT22;16599;47.078;15.536;2023-11-19T12:27:22;9.40;91.30
29687;DHT22;16599;47.078;15.536;2023-11-19T12:29:49;9.70;90.20
29687;DHT22;16599;47.078;15.536;2023-11-19T12:32:16;9.70;90.30
29687;DHT22;16599;47.078;15.536;2023-11-19T12:34:43;9.80;89.90
29687;DHT22;16599;47.078;15.536;2023-11-19T12:37:11;9.80;89.20
29687;DHT22;16599;47.078;15.536;2023-11-19T12:39:38;10.00;88.70
29687;DHT22;16599;47.078;15.536;2023-11-19T12:42:05;9.70;88.50
29687;DHT22;16599;47.078;15.536;2023-11-19T12:44:32;9.80;88.90
29687;DHT22;16599;47.078;15.536;2023-11-19T12:49:30;10.10;89.70
29687;DHT22;16599;47.078;15.536;2023-11-19T12:51:57;10.20;88.00
29687;DHT22;16599;47.078;15.536;2023-11-19T12:57:01;10.50;86.90
29687;DHT22;16599;47.078;15.536;2023-11-19T12:59:28;10.50;87.80
29687;DHT22;16599;47.078;15.536;2023-11-19T13:01:55;10.10;87.30
29687;DHT22;16599;47.078;15.536;2023-11-19T13:04:22;10.10;88.30
29687;DHT22;16599;47.078;15.536;2023-11-19T13:06:50;10.20;87.70
29687;DHT22;16599;47.078;15.536;2023-11-19T13:09:27;10.20;87.40
29687;DHT22;16599;47.078;15.536;2023-11-19T13:11:54;10.20;87.50
29687;DHT22;16599;47.078;15.536;2023-11-19T13:14:22;10.20;87.10
29687;DHT22;16599;47.078;15.536;2023-11-19T13:16:49;10.20;87.90
29687;DHT22;16599;47.078;15.536;2023-11-19T13:19:17;10.00;88.40
29687;DHT22;16599;47.078;15.536;2023-11-19T13:21:46;9.80;89.50
29687;DHT22;16599;47.078;15.536;2023-11-19T13:24:14;10.00;88.40
29687;DHT22;16599;47.078;15.536;2023-11-19T13:26:41;10.10;88.30
29687;DHT22;16599;47.078;15.536;2023-11-19T13:29:08;9.90;89.90
29687;DHT22;16599;47.078;15.536;2023-11-19T13:31:37;10.00;88.90
29687;DHT22;16599;47.078;15.536;2023-11-19T13:34:04;10.10;88.70
29687;DHT22;16599;47.078;15.536;2023-11-19T13:36:33;10.00;89.10
29687;DHT22;16599;47.078;15.536;2023-11-19T13:39:01;9.90;90.00
29687;DHT22;16599;47.078;15.536;2023-11-19T13:41:28;9.80;89.40
29687;DHT22;16599;47.078;15.536;2023-11-19T13:43:54;9.80;88.30
29687;DHT22;16599;47.078;15.536;2023-11-19T13:48:51;9.60;88.80
29687;DHT22;16599;47.078;15.536;2023-11-19T13:51:18;9.40;90.70
29687;DHT22;16599;47.078;15.536;2023-11-19T13:53:45;9.20;90.70
29687;DHT22;16599;47.078;15.536;2023-11-19T13:56:15;9.00;90.90
29687;DHT22;16599;47.078;15.536;2023-11-19T13:59:02;9.00;92.00
29687;DHT22;16599;47.078;15.536;2023-11-19T14:01:29;9.20;91.70
29687;DHT22;16599;47.078;15.536;2023-11-19T14:03:55;9.20;91.50
29687;DHT22;16599;47.078;15.536;2023-11-19T14:06:22;9.10;91.90
29687;DHT22;16599;47.078;15.536;2023-11-19T14:08:50;8.90;91.90
29687;DHT22;16599;47.078;15.536;2023-11-19T14:11:17;8.80;92.20
29687;DHT22;16599;47.078;15.536;2023-11-19T14:13:44;8.80;92.60
29687;DHT22;16599;47.078;15.536;2023-11-19T14:16:13;8.70;93.40
29687;DHT22;16599;47.078;15.536;2023-11-19T14:18:40;8.40;93.60
29687;DHT22;16599;47.078;15.536;2023-11-19T14:21:07;8.30;93.70
29687;DHT22;16599;47.078;15.536;2023-11-19T14:23:33;8.20;94.60
29687;DHT22;16599;47.078;15.536;2023-11-19T14:26:00;8.20;94.40
29687;DHT22;16599;47.078;15.536;2023-11-19T14:28:27;8.20;94.20
29687;DHT22;16599;47.078;15.536;2023-11-19T14:30:53;8.20;94.20
29687;DHT22;16599;47.078;15.536;2023-11-19T14:33:23;8.10;94.10
29687;DHT22;16599;47.078;15.536;2023-11-19T14:35:50;8.10;94.10
29687;DHT22;16599;47.078;15.536;2023-11-19T14:38:18;8.00;95.10
29687;DHT22;16599;47.078;15.536;2023-11-19T14:40:45;7.90;95.40
29687;DHT22;16599;47.078;15.536;2023-11-19T14:43:12;7.50;96.00
29687;DHT22;16599;47.078;15.536;2023-11-19T14:45:40;7.40;96.40
29687;DHT22;16599;47.078;15.536;2023-11-19T14:48:15;7.40;97.10
29687;DHT22;16599;47.078;15.536;2023-11-19T14:50:42;7.40;97.30
29687;DHT22;16599;47.078;15.536;2023-11-19T14:53:11;6.90;97.70
29687;DHT22;16599;47.078;15.536;2023-11-19T14:55:38;6.50;99.10
29687;DHT22;16599;47.078;15.536;2023-11-19T15:00:58;6.30;99.90
29687;DHT22;16599;47.078;15.536;2023-11-19T15:03:25;6.50;99.90
29687;DHT22;16599;47.078;15.536;2023-11-19T15:05:53;6.60;99.90
29687;DHT22;16599;47.078;15.536;2023-11-19T15:08:19;6.50;99.90
29687;DHT22;16599;47.078;15.536;2023-11-19T15:10:47;6.10;99.90
29687;DHT22;16599;47.078;15.536;2023-11-19T15:13:14;6.10;99.90
29687;DHT22;16599;47.078;15.536;2023-11-19T15:15:40;6.00;99.90
29687;DHT22;16599;47.078;15.536;2023-11-19T15:18:07;5.60;99.90
29687;DHT22;16599;47.078;15.536;2023-11-19T15:20:36;5.60;99.90
29687;DHT22;16599;47.078;15.536;2023-11-19T15:23:02;5.50;99.90
29687;DHT22;16599;47.078;15.536;2023-11-19T15:25:33;5.50;99.90
29687;DHT22;16599;47.078;15.536;2023-11-19T15:28:00;5.50;99.90
29687;DHT22;16599;47.078;15.536;2023-11-19T15:30:26;5.60;99.90
29687;DHT22;16599;47.078;15.536;2023-11-19T15:32:53;5.60;99.90
29687;DHT22;16599;47.078;15.536;2023-11-19T15:35:21;5.40;99.90
29687;DHT22;16599;47.078;15.536;2023-11-19T15:37:48;4.70;99.90
29687;DHT22;16599;47.078;15.536;2023-11-19T15:40:15;5.10;99.90
29687;DHT22;16599;47.078;15.536;2023-11-19T15:42:43;5.20;99.90
29687;DHT22;16599;47.078;15.536;2023-11-19T15:45:30;5.20;99.90
29687;DHT22;16599;47.078;15.536;2023-11-19T15:47:56;5.20;99.90
29687;DHT22;16599;47.078;15.536;2023-11-19T15:50:24;5.10;99.90
29687;DHT22;16599;47.078;15.536;2023-11-19T15:52:51;4.60;99.90
29687;DHT22;16599;47.078;15.536;2023-11-19T15:55:17;4.60;99.90
29687;DHT22;16599;47.078;15.536;2023-11-19T15:57:44;4.60;99.90
29687;DHT22;16599;47.078;15.536;2023-11-19T16:00:17;4.20;99.90
29687;DHT22;16599;47.078;15.536;2023-11-19T16:03:04;4.00;99.90
29687;DHT22;16599;47.078;15.536;2023-11-19T16:05:31;4.20;99.90
29687;DHT22;16599;47.078;15.536;2023-11-19T16:07:58;3.90;99.90
29687;DHT22;16599;47.078;15.536;2023-11-19T16:10:26;3.90;99.90
29687;DHT22;16599;47.078;15.536;2023-11-19T16:12:56;4.10;99.90
29687;DHT22;16599;47.078;15.536;2023-11-19T16:15:22;4.40;99.90
29687;DHT22;16599;47.078;15.536;2023-11-19T16:17:52;4.50;99.90